Decoded Metar for OIZB (ZABOL in IRAN) (IATA:N/A) | Meteo·Mobile Aviation Weather
aviador You're here:

OIZB Decoded Metar

ZABOL in IRAN
Report Time2019-01-18 13:00:00
UTC Time2019-01-18 14:02:55
Flight Rules ifr IFR
Wind360° at 08 kt
W.Decomp.*RWY 34: 7.6 kt HW 2.5 kt RCW
Visibility3500 m
Phenomena:Widespread Dust
Clouds:N/A
Expected CloudBase > 10,400 ft AGL from Temp-Dew spread
CeilingNone
Temp22°C (ISA +10)
Dew Point-4°C (17% RH)
AAT16.6°C
QNH1009 hPa
Density Alt2,989 ft
Elevation1,604 ft
Report Wrong Elevation
Raw Report
METAR OIZB 181300Z 36008KT 3500 DU NSC 22/M04 Q1009=

Extra information for OIZB:More info

Metar Taf Metar & Taf Last 4 Metars F.Rules Stats Wind Profile Meteogram Temp Stats Airport Information Weather charts Add Link Nearby VenuesMetar ALERT Operation Metar Decoded Social comments